Time;durP1;ratioP1;P1;durP2;ratioP2;P2;SDS_P1;SDS_P2;PMS_P1;PMS_P2;Temp;Humidity;BMP_temperature;BMP_pressure;BME280_temperature;BME280_humidity;BME280_pressure;Samples;Min_cycle;Max_cycle;Signal;HPM_P1;HPM_P2
2021/12/30 00:02:03;;;;;;;3.45;2.58;;;10.70;99.90;;;;;;2020788;70;21499;-80
2021/12/30 00:04:29;;;;;;;3.20;2.40;;;10.70;99.90;;;;;;2020793;70;21492;-80
2021/12/30 00:06:55;;;;;;;2.37;2.17;;;10.60;99.90;;;;;;2022386;70;21515;-79
2021/12/30 00:09:21;;;;;;;2.00;1.85;;;10.70;99.90;;;;;;2020964;70;21456;-78
2021/12/30 00:11:48;;;;;;;4.87;2.27;;;10.80;99.90;;;;;;2020559;71;21044;-79
2021/12/30 00:14:14;;;;;;;1.72;1.57;;;10.80;99.90;;;;;;2020229;71;21048;-79
2021/12/30 00:16:40;;;;;;;2.95;1.90;;;10.80;99.90;;;;;;2019784;70;21133;-79
2021/12/30 00:19:06;;;;;;;2.35;1.30;;;10.60;99.90;;;;;;2020371;70;21048;-79
2021/12/30 00:21:32;;;;;;;5.35;1.40;;;10.80;99.90;;;;;;2022483;70;21008;-79
2021/12/30 00:23:58;;;;;;;5.33;1.77;;;10.90;99.90;;;;;;2021828;70;21051;-79
2021/12/30 00:26:24;;;;;;;1.30;1.30;;;10.60;99.90;;;;;;2019875;70;21163;-80
2021/12/30 00:28:52;;;;;;;4.60;2.02;;;10.70;99.90;;;;;;2023026;70;21092;-79
2021/12/30 00:31:18;;;;;;;2.55;1.82;;;10.70;99.90;;;;;;2021702;70;21069;-79
2021/12/30 00:33:44;;;;;;;1.82;1.60;;;10.70;99.90;;;;;;2022559;70;21071;-79
2021/12/30 00:36:11;;;;;;;3.90;1.40;;;10.70;99.90;;;;;;2019508;70;21059;-79
2021/12/30 00:38:38;;;;;;;3.47;1.92;;;10.60;99.90;;;;;;2021130;70;21525;-80
2021/12/30 00:41:04;;;;;;;4.22;1.80;;;10.60;99.90;;;;;;2022042;70;21058;-79
2021/12/30 00:43:30;;;;;;;2.10;1.60;;;10.70;99.90;;;;;;2022057;70;21116;-79
2021/12/30 00:45:56;;;;;;;1.67;1.47;;;10.60;99.90;;;;;;2020133;70;21059;-80
2021/12/30 00:48:22;;;;;;;3.10;1.98;;;10.50;99.90;;;;;;2019926;70;21038;-79
2021/12/30 00:50:48;;;;;;;2.52;1.55;;;10.60;99.90;;;;;;2020884;70;21137;-79
2021/12/30 00:53:14;;;;;;;1.87;1.40;;;10.70;99.90;;;;;;2019626;71;21109;-79
2021/12/30 00:55:41;;;;;;;1.98;1.65;;;10.60;99.90;;;;;;2017048;71;21082;-79
2021/12/30 00:58:07;;;;;;;1.60;1.50;;;10.50;99.90;;;;;;2020233;70;21124;-80
2021/12/30 01:00:33;;;;;;;2.20;1.30;;;10.50;99.90;;;;;;2018778;70;21011;-80
2021/12/30 01:02:59;;;;;;;1.55;1.45;;;10.60;99.90;;;;;;2021986;70;21149;-80
2021/12/30 01:05:25;;;;;;;1.50;0.95;;;10.60;99.90;;;;;;2018289;70;21114;-79
2021/12/30 01:07:51;;;;;;;1.90;1.10;;;10.70;99.90;;;;;;2020336;70;21117;-79
2021/12/30 01:10:19;;;;;;;2.17;1.42;;;10.60;99.90;;;;;;2020768;70;21016;-80
2021/12/30 01:12:45;;;;;;;1.40;1.10;;;10.60;99.90;;;;;;2018675;70;21079;-80
2021/12/30 01:15:11;;;;;;;5.30;1.20;;;10.60;99.90;;;;;;2021125;71;21043;-80
2021/12/30 01:17:51;;;;;;;1.30;1.20;;;10.40;99.90;;;;;;2021859;70;21545;-79
2021/12/30 01:20:11;;;;;;;1.90;1.17;;;10.40;99.90;;;;;;2009877;70;21088;-79
2021/12/30 01:22:37;;;;;;;3.40;1.17;;;10.50;99.90;;;;;;2018166;70;21051;-78
2021/12/30 01:25:04;;;;;;;2.92;1.32;;;10.60;99.90;;;;;;2022089;70;21051;-80
2021/12/30 01:27:30;;;;;;;1.12;0.85;;;10.50;99.90;;;;;;2022685;71;21080;-79
2021/12/30 01:29:56;;;;;;;3.20;1.30;;;10.60;99.90;;;;;;2022198;70;21276;-79
2021/12/30 01:32:22;;;;;;;3.15;1.20;;;10.60;99.90;;;;;;2018808;70;21016;-79
2021/12/30 01:34:48;;;;;;;2.00;1.00;;;10.50;99.90;;;;;;2019402;70;21129;-79
2021/12/30 01:37:19;;;;;;;2.58;1.05;;;10.60;99.90;;;;;;2019457;70;21314;-80
2021/12/30 01:39:42;;;;;;;1.65;0.90;;;10.60;99.90;;;;;;2018207;70;21140;-80
2021/12/30 01:42:09;;;;;;;2.10;1.02;;;10.60;99.90;;;;;;2020137;70;21059;-80
2021/12/30 01:44:35;;;;;;;1.10;1.00;;;10.80;99.90;;;;;;2020419;70;21184;-80
2021/12/30 01:47:02;;;;;;;0.88;0.88;;;10.90;99.90;;;;;;2019080;70;21020;-79
2021/12/30 01:49:28;;;;;;;1.57;0.90;;;10.90;99.90;;;;;;2018346;70;21055;-79
2021/12/30 01:51:54;;;;;;;1.82;0.80;;;11.00;99.90;;;;;;2021943;70;21125;-80
2021/12/30 01:54:20;;;;;;;0.80;0.80;;;11.00;99.90;;;;;;2022332;70;21266;-78
2021/12/30 01:56:46;;;;;;;0.90;0.80;;;11.00;99.90;;;;;;2022814;71;21117;-80
2021/12/30 01:59:13;;;;;;;1.22;0.75;;;10.80;99.90;;;;;;2019514;70;21521;-79
2021/12/30 02:01:39;;;;;;;3.70;1.10;;;10.80;99.90;;;;;;2018336;70;21444;-80
2021/12/30 02:04:05;;;;;;;1.25;0.90;;;10.70;99.90;;;;;;2020237;70;21561;-79
2021/12/30 02:06:31;;;;;;;1.20;0.72;;;10.70;99.90;;;;;;2021931;70;21424;-80
2021/12/30 02:08:59;;;;;;;2.45;0.90;;;10.80;99.90;;;;;;2020675;70;21478;-79
2021/12/30 02:11:25;;;;;;;1.72;0.80;;;10.70;99.90;;;;;;2018976;70;21146;-80
2021/12/30 02:13:51;;;;;;;3.70;1.00;;;10.60;99.90;;;;;;2022289;70;21196;-80
2021/12/30 02:16:18;;;;;;;1.22;1.00;;;10.60;99.90;;;;;;2019062;70;21050;-80
2021/12/30 02:18:44;;;;;;;1.00;0.80;;;10.50;99.90;;;;;;2019040;70;21059;-79
2021/12/30 02:21:10;;;;;;;2.27;1.00;;;10.50;99.90;;;;;;2021436;70;21043;-79
2021/12/30 02:23:37;;;;;;;2.20;0.80;;;10.60;99.90;;;;;;2020631;70;21071;-78
2021/12/30 02:26:03;;;;;;;2.55;0.78;;;10.60;99.90;;;;;;2020727;70;21047;-79
2021/12/30 02:28:29;;;;;;;0.82;0.82;;;10.60;99.90;;;;;;2020315;70;21051;-80
2021/12/30 02:30:55;;;;;;;1.32;0.70;;;10.50;99.90;;;;;;2022674;70;21500;-79
2021/12/30 02:33:21;;;;;;;2.12;0.68;;;10.60;99.90;;;;;;2021141;70;21493;-79
2021/12/30 02:35:47;;;;;;;1.95;0.70;;;10.60;99.90;;;;;;2018621;70;21573;-80
2021/12/30 02:38:13;;;;;;;1.10;1.00;;;10.80;99.90;;;;;;2022153;70;21511;-80
2021/12/30 02:40:39;;;;;;;1.17;0.90;;;10.80;99.90;;;;;;2020188;70;21467;-79
2021/12/30 02:43:06;;;;;;;0.60;0.57;;;10.80;99.90;;;;;;2022966;70;21162;-79
2021/12/30 02:45:32;;;;;;;1.12;0.75;;;10.80;99.90;;;;;;2020879;70;21044;-80
2021/12/30 02:47:58;;;;;;;1.30;0.72;;;10.70;99.90;;;;;;2021442;70;21054;-79
2021/12/30 02:50:24;;;;;;;2.08;0.60;;;10.70;99.90;;;;;;2019014;70;21048;-79
2021/12/30 02:52:50;;;;;;;3.50;0.62;;;10.60;99.90;;;;;;2022367;70;21452;-79
2021/12/30 02:55:16;;;;;;;1.02;0.70;;;10.60;99.90;;;;;;2022646;70;21117;-79
2021/12/30 02:57:42;;;;;;;1.60;0.75;;;10.60;99.90;;;;;;2018522;70;21470;-79
2021/12/30 03:00:08;;;;;;;1.45;0.60;;;10.50;99.90;;;;;;2021032;70;21472;-80
2021/12/30 03:02:35;;;;;;;1.50;0.50;;;10.70;99.90;;;;;;2019280;70;21044;-79
2021/12/30 03:05:01;;;;;;;1.02;0.55;;;10.80;99.90;;;;;;2020984;70;21051;-79
2021/12/30 03:07:28;;;;;;;0.75;0.53;;;10.90;99.90;;;;;;2020146;71;21044;-79
2021/12/30 03:09:54;;;;;;;0.45;0.45;;;10.90;99.90;;;;;;2019374;70;21129;-79
2021/12/30 03:12:21;;;;;;;1.25;0.53;;;11.00;99.90;;;;;;2021736;70;21127;-79
2021/12/30 03:14:47;;;;;;;0.30;0.30;;;11.10;99.90;;;;;;2022884;70;21475;-79
2021/12/30 03:17:13;;;;;;;1.57;0.57;;;11.20;99.90;;;;;;2022052;70;21471;-80
2021/12/30 03:19:39;;;;;;;0.88;0.50;;;11.20;99.90;;;;;;2019703;70;21449;-79
2021/12/30 03:22:06;;;;;;;1.85;0.55;;;11.20;99.90;;;;;;2022418;70;21512;-79
2021/12/30 03:24:32;;;;;;;0.93;0.70;;;11.20;99.90;;;;;;2021274;70;21059;-80
2021/12/30 03:26:58;;;;;;;0.60;0.47;;;11.30;99.90;;;;;;2019560;70;21059;-80
2021/12/30 03:29:24;;;;;;;1.62;0.47;;;11.30;99.90;;;;;;2019034;70;21047;-79
2021/12/30 03:31:50;;;;;;;2.75;0.90;;;11.30;99.90;;;;;;2021929;70;21024;-78
2021/12/30 03:34:16;;;;;;;0.60;0.57;;;11.30;99.90;;;;;;2015618;70;21218;-80
2021/12/30 03:36:43;;;;;;;0.85;0.55;;;11.30;99.90;;;;;;2020535;70;21048;-80
2021/12/30 03:39:09;;;;;;;0.53;0.40;;;11.30;99.90;;;;;;2021157;70;21055;-80
2021/12/30 03:41:35;;;;;;;0.60;0.50;;;11.40;99.90;;;;;;2019115;70;21125;-79
2021/12/30 03:44:01;;;;;;;1.52;0.57;;;11.30;99.90;;;;;;2022104;70;21063;-80
2021/12/30 03:46:28;;;;;;;3.05;0.60;;;11.40;99.90;;;;;;2019661;70;21470;-79
2021/12/30 03:48:54;;;;;;;3.02;0.90;;;11.40;99.90;;;;;;2019966;70;21493;-79
2021/12/30 03:51:22;;;;;;;2.58;0.55;;;11.30;99.90;;;;;;2018836;70;21047;-79
2021/12/30 03:53:49;;;;;;;1.10;0.65;;;11.20;99.90;;;;;;2021289;70;21127;-80
2021/12/30 03:56:15;;;;;;;1.90;0.75;;;11.30;99.90;;;;;;2023268;70;21129;-79
2021/12/30 03:58:41;;;;;;;2.85;1.00;;;11.40;99.90;;;;;;2019227;70;21055;-80
2021/12/30 04:01:07;;;;;;;1.35;0.70;;;11.30;99.90;;;;;;2019329;70;21137;-79
2021/12/30 04:03:33;;;;;;;1.37;0.70;;;11.30;99.90;;;;;;2019633;70;21121;-80
2021/12/30 04:06:00;;;;;;;1.27;0.82;;;11.30;99.90;;;;;;2021762;70;21059;-80
2021/12/30 04:08:26;;;;;;;1.57;0.85;;;11.20;99.90;;;;;;2022536;70;21548;-79
2021/12/30 04:10:52;;;;;;;0.70;0.70;;;11.30;99.90;;;;;;2022689;70;21409;-79
2021/12/30 04:13:18;;;;;;;2.75;0.70;;;11.30;99.90;;;;;;2018602;70;21480;-80
2021/12/30 04:15:44;;;;;;;1.55;0.90;;;11.40;99.90;;;;;;2021729;70;21476;-80
2021/12/30 04:18:10;;;;;;;2.35;0.90;;;11.40;99.90;;;;;;2020041;70;21451;-80
2021/12/30 04:20:36;;;;;;;1.77;0.90;;;11.50;99.90;;;;;;2021008;70;21019;-80
2021/12/30 04:23:02;;;;;;;3.40;0.82;;;11.30;99.90;;;;;;2020184;70;21150;-80
2021/12/30 04:25:29;;;;;;;1.72;1.00;;;11.30;99.90;;;;;;2020582;71;21121;-79
2021/12/30 04:27:55;;;;;;;1.67;0.70;;;11.40;99.90;;;;;;2015523;70;21040;-80
2021/12/30 04:30:21;;;;;;;1.72;0.75;;;11.30;99.90;;;;;;2022481;70;21024;-80
2021/12/30 04:32:47;;;;;;;1.70;0.62;;;11.50;99.90;;;;;;2012381;70;21095;-80
2021/12/30 04:35:13;;;;;;;1.05;0.40;;;11.50;99.90;;;;;;2021210;70;21064;-80
2021/12/30 04:37:40;;;;;;;0.50;0.50;;;11.70;99.90;;;;;;2020916;71;21055;-79
2021/12/30 04:40:06;;;;;;;1.67;0.60;;;11.70;99.90;;;;;;2019128;70;21343;-79
2021/12/30 04:42:32;;;;;;;1.70;1.05;;;11.70;99.90;;;;;;2022058;70;21495;-79
2021/12/30 04:44:58;;;;;;;0.47;0.47;;;11.60;99.90;;;;;;2022309;70;21573;-80
2021/12/30 04:47:25;;;;;;;0.95;0.53;;;11.70;99.90;;;;;;2023571;70;21476;-79
2021/12/30 04:49:52;;;;;;;0.90;0.40;;;11.80;99.90;;;;;;2020741;70;21062;-79
2021/12/30 04:52:19;;;;;;;1.30;0.50;;;11.80;99.90;;;;;;2020393;70;21042;-79
2021/12/30 04:54:45;;;;;;;1.70;0.80;;;11.70;99.90;;;;;;2019643;69;21058;-79
2021/12/30 04:57:11;;;;;;;0.72;0.60;;;11.60;99.90;;;;;;2020769;70;21042;-79
2021/12/30 04:59:37;;;;;;;0.78;0.50;;;11.60;99.90;;;;;;2021772;70;21125;-79
2021/12/30 05:02:04;;;;;;;0.98;0.70;;;11.60;99.90;;;;;;2020927;71;21068;-79
2021/12/30 05:04:30;;;;;;;1.67;0.60;;;11.50;99.90;;;;;;2020608;70;21024;-78
2021/12/30 05:06:56;;;;;;;1.77;0.68;;;11.40;99.90;;;;;;2021588;70;21052;-79
2021/12/30 05:09:22;;;;;;;0.57;0.57;;;11.40;99.90;;;;;;2020615;70;21147;-78
2021/12/30 05:11:48;;;;;;;1.60;0.60;;;11.30;99.90;;;;;;2022777;70;21047;-79
2021/12/30 05:14:14;;;;;;;0.40;0.40;;;11.40;99.90;;;;;;2021975;70;21056;-79
2021/12/30 05:16:40;;;;;;;1.62;0.57;;;11.30;99.90;;;;;;2014032;70;21045;-79
2021/12/30 05:19:07;;;;;;;0.85;0.70;;;11.20;99.90;;;;;;2017896;70;21126;-80
2021/12/30 05:21:33;;;;;;;4.37;0.70;;;11.20;99.90;;;;;;2019078;70;21051;-80
2021/12/30 05:23:59;;;;;;;0.70;0.70;;;11.20;99.90;;;;;;2022864;70;21048;-80
2021/12/30 05:26:27;;;;;;;0.75;0.50;;;11.10;99.90;;;;;;2020499;70;21050;-80
2021/12/30 05:28:53;;;;;;;1.50;0.93;;;11.10;99.90;;;;;;2018052;70;21153;-80
2021/12/30 05:31:19;;;;;;;1.55;1.00;;;11.00;99.90;;;;;;2022403;70;21044;-80
2021/12/30 05:33:45;;;;;;;5.20;0.98;;;11.00;99.90;;;;;;2022399;71;21039;-80
2021/12/30 05:36:11;;;;;;;0.98;0.80;;;11.10;99.90;;;;;;2020348;70;21114;-79
2021/12/30 05:38:37;;;;;;;2.45;1.10;;;11.10;99.90;;;;;;2020914;70;21019;-80
2021/12/30 05:41:03;;;;;;;0.82;0.78;;;11.10;99.90;;;;;;2022079;70;21113;-80
2021/12/30 05:43:29;;;;;;;0.68;0.68;;;11.00;99.90;;;;;;2022100;71;21056;-80
2021/12/30 05:45:56;;;;;;;1.25;0.93;;;11.10;99.90;;;;;;2021397;71;21124;-80
2021/12/30 05:48:22;;;;;;;3.47;1.60;;;11.10;99.90;;;;;;2023293;70;21060;-80
2021/12/30 05:50:48;;;;;;;1.07;1.00;;;11.00;99.90;;;;;;2020479;70;21059;-80
2021/12/30 05:53:14;;;;;;;1.92;1.50;;;10.90;99.90;;;;;;2018395;70;21136;-80
2021/12/30 05:55:40;;;;;;;3.08;1.45;;;10.90;99.90;;;;;;2018341;70;21528;-80
2021/12/30 05:58:06;;;;;;;5.45;1.55;;;11.10;99.90;;;;;;2022062;70;21498;-80
2021/12/30 06:00:32;;;;;;;4.97;1.57;;;11.00;99.90;;;;;;2020857;70;21467;-81
2021/12/30 06:02:58;;;;;;;2.35;1.15;;;10.90;99.90;;;;;;2022119;70;21451;-80
2021/12/30 06:05:24;;;;;;;1.92;1.50;;;10.90;99.90;;;;;;2021896;70;21503;-80
2021/12/30 06:07:51;;;;;;;2.15;1.20;;;11.00;99.90;;;;;;2019692;70;21132;-79
2021/12/30 06:10:17;;;;;;;4.20;1.67;;;11.00;99.90;;;;;;2020799;70;21177;-80
2021/12/30 06:12:43;;;;;;;4.97;1.60;;;10.80;99.90;;;;;;2021723;70;21129;-80
2021/12/30 06:15:09;;;;;;;4.00;1.70;;;10.90;99.90;;;;;;2020372;70;21047;-80
2021/12/30 06:17:37;;;;;;;2.92;1.70;;;11.00;99.90;;;;;;2019804;70;21082;-80
2021/12/30 06:20:03;;;;;;;3.40;1.95;;;10.90;99.90;;;;;;2022497;70;21560;-81
2021/12/30 06:22:29;;;;;;;3.30;1.70;;;11.00;99.90;;;;;;2020293;70;21051;-80
2021/12/30 06:24:55;;;;;;;3.65;1.70;;;11.10;99.90;;;;;;2021284;70;21565;-80
2021/12/30 06:27:21;;;;;;;4.90;2.00;;;11.10;99.90;;;;;;2019784;70;21428;-80
2021/12/30 06:29:47;;;;;;;6.65;1.98;;;11.10;99.90;;;;;;2018766;70;21142;-81
2021/12/30 06:32:13;;;;;;;2.52;1.90;;;11.00;99.90;;;;;;2020637;70;21056;-80
2021/12/30 06:34:39;;;;;;;2.20;1.55;;;10.90;99.90;;;;;;2022216;70;21144;-80
2021/12/30 06:37:06;;;;;;;3.95;1.57;;;10.80;99.90;;;;;;2020405;70;21025;-79
2021/12/30 06:39:32;;;;;;;3.75;1.47;;;11.00;99.90;;;;;;2021119;70;21054;-79
2021/12/30 06:41:59;;;;;;;3.37;1.50;;;11.00;99.90;;;;;;2022239;70;21125;-80
2021/12/30 06:44:25;;;;;;;4.95;1.80;;;11.00;99.90;;;;;;2021551;70;21032;-79
2021/12/30 06:46:58;;;;;;;6.10;2.10;;;10.90;99.90;;;;;;2017082;70;21112;-80
2021/12/30 06:49:22;;;;;;;;;;;10.90;99.90;;;;;;2022645;70;21492;-79
2021/12/30 06:51:48;;;;;;;3.02;1.85;;;10.90;99.90;;;;;;2019355;71;20363;-80
2021/12/30 06:54:14;;;;;;;4.75;2.22;;;10.90;99.90;;;;;;2018197;70;21559;-80
2021/12/30 06:56:41;;;;;;;7.67;1.95;;;11.10;99.90;;;;;;2020471;70;21487;-80
2021/12/30 06:59:09;;;;;;;3.50;2.17;;;11.20;99.90;;;;;;2021406;70;21137;-78
2021/12/30 07:01:35;;;;;;;6.87;3.72;;;11.00;99.90;;;;;;2024084;70;21113;-78
2021/12/30 07:04:01;;;;;;;4.05;2.30;;;10.90;99.90;;;;;;2021780;71;21032;-78
2021/12/30 07:06:28;;;;;;;5.10;2.00;;;10.90;99.90;;;;;;2019352;70;21084;-77
2021/12/30 07:08:54;;;;;;;5.37;2.17;;;11.10;99.90;;;;;;2021895;70;21117;-79
2021/12/30 07:11:20;;;;;;;6.20;1.90;;;11.20;99.90;;;;;;2021426;70;21016;-79
2021/12/30 07:13:46;;;;;;;4.17;2.20;;;11.20;99.90;;;;;;2022565;70;21039;-78
2021/12/30 07:16:12;;;;;;;3.02;1.98;;;11.10;99.90;;;;;;2021032;71;21044;-78
2021/12/30 07:18:38;;;;;;;3.62;1.77;;;11.10;99.90;;;;;;2022239;70;21048;-78
2021/12/30 07:21:04;;;;;;;2.75;1.92;;;11.10;99.90;;;;;;2020686;70;21051;-88
2021/12/30 07:23:30;;;;;;;3.77;2.02;;;11.00;99.90;;;;;;2019006;70;21136;-86
2021/12/30 07:25:57;;;;;;;2.98;1.87;;;10.90;99.90;;;;;;2019014;70;21044;-84
2021/12/30 07:28:23;;;;;;;6.58;3.00;;;11.20;99.90;;;;;;2020890;70;21054;-87
2021/12/30 07:30:49;;;;;;;4.35;2.02;;;11.20;99.90;;;;;;2018682;70;21048;-82
2021/12/30 07:33:15;;;;;;;7.53;2.83;;;11.20;99.90;;;;;;2020244;70;21064;-81
2021/12/30 07:35:41;;;;;;;8.05;3.10;;;11.20;99.90;;;;;;2020222;70;21059;-81
2021/12/30 07:38:08;;;;;;;4.42;2.30;;;11.30;99.90;;;;;;2020930;70;21175;-81
2021/12/30 07:40:34;;;;;;;4.95;2.52;;;11.20;99.90;;;;;;2021904;70;21008;-82
2021/12/30 07:43:00;;;;;;;4.25;2.40;;;11.10;99.90;;;;;;2021405;69;21058;-82
2021/12/30 07:45:26;;;;;;;10.88;3.45;;;11.10;99.90;;;;;;2020843;70;21050;-84
2021/12/30 07:47:53;;;;;;;6.17;3.05;;;11.20;99.90;;;;;;2021306;70;21039;-84
2021/12/30 07:50:19;;;;;;;6.55;2.98;;;11.10;99.90;;;;;;2019270;70;21468;-82
2021/12/30 07:52:45;;;;;;;3.95;2.40;;;11.20;99.90;;;;;;2022042;70;21487;-84
2021/12/30 07:55:13;;;;;;;7.95;2.87;;;11.20;99.90;;;;;;2022856;71;21043;-84
2021/12/30 07:57:40;;;;;;;7.12;2.77;;;11.20;99.90;;;;;;2022277;70;21051;-85
2021/12/30 08:00:06;;;;;;;3.00;2.05;;;11.40;99.90;;;;;;2020625;70;21488;-84
2021/12/30 08:02:32;;;;;;;2.30;2.10;;;11.50;99.90;;;;;;2019289;70;21122;-83
2021/12/30 08:04:58;;;;;;;6.15;2.45;;;11.40;99.90;;;;;;2022044;70;21055;-84
2021/12/30 08:07:24;;;;;;;4.72;2.40;;;11.30;99.90;;;;;;2022545;70;21208;-84
2021/12/30 08:09:51;;;;;;;4.55;2.95;;;11.40;99.90;;;;;;2024114;70;21051;-79
2021/12/30 08:12:17;;;;;;;11.12;1.52;;;11.60;99.90;;;;;;2022997;70;21556;-87
2021/12/30 08:14:43;;;;;;;0.40;0.40;;;11.70;99.90;;;;;;2023318;71;21086;-86
2021/12/30 08:17:09;;;;;;;1.62;1.10;;;11.90;99.90;;;;;;2024413;69;21135;-86
2021/12/30 08:19:35;;;;;;;1.32;1.20;;;12.00;99.90;;;;;;2019791;70;21036;-84
2021/12/30 08:22:01;;;;;;;1.37;0.60;;;12.00;99.90;;;;;;2021877;70;21128;-75
2021/12/30 08:24:29;;;;;;;2.52;1.45;;;12.20;99.90;;;;;;2022994;71;21107;-80
2021/12/30 08:26:55;;;;;;;2.52;1.98;;;12.00;99.90;;;;;;2020333;70;21399;-76
2021/12/30 08:29:21;;;;;;;2.22;2.08;;;11.80;99.90;;;;;;2019748;69;21423;-81
2021/12/30 08:31:48;;;;;;;2.30;1.70;;;11.90;99.90;;;;;;2019911;70;21514;-78
2021/12/30 08:34:14;;;;;;;1.65;1.55;;;12.00;99.90;;;;;;2020627;70;21113;-80
2021/12/30 08:36:40;;;;;;;0.68;0.60;;;12.20;99.90;;;;;;2021747;70;21049;-83
2021/12/30 08:39:06;;;;;;;1.70;1.05;;;12.30;99.90;;;;;;2021679;70;21059;-82
2021/12/30 08:41:32;;;;;;;0.80;0.68;;;12.30;99.90;;;;;;2022917;69;21059;-79
2021/12/30 08:43:58;;;;;;;2.17;1.05;;;12.40;99.90;;;;;;2021703;70;21137;-77
2021/12/30 08:46:24;;;;;;;1.15;0.50;;;12.30;99.90;;;;;;2021542;70;21031;-80
2021/12/30 08:48:50;;;;;;;0.60;0.60;;;12.40;99.90;;;;;;2019924;70;21059;-75
2021/12/30 08:51:16;;;;;;;0.60;0.60;;;12.30;99.90;;;;;;2021024;70;21039;-74
2021/12/30 08:53:43;;;;;;;2.02;1.07;;;12.30;99.90;;;;;;2021220;70;21051;-77
2021/12/30 08:56:11;;;;;;;2.62;1.50;;;12.40;99.90;;;;;;2019235;70;21110;-76
2021/12/30 08:58:37;;;;;;;8.18;3.83;;;12.50;99.90;;;;;;2018976;70;21153;-74
2021/12/30 09:01:03;;;;;;;1.95;1.02;;;12.70;99.90;;;;;;2018784;70;21046;-75
2021/12/30 09:03:29;;;;;;;6.85;3.20;;;12.60;99.90;;;;;;2021011;71;21047;-74
2021/12/30 09:05:55;;;;;;;2.25;0.98;;;12.70;99.90;;;;;;2020718;70;21052;-73
2021/12/30 09:08:21;;;;;;;0.70;0.60;;;12.90;99.90;;;;;;2023447;70;21088;-78
2021/12/30 09:10:49;;;;;;;0.53;0.53;;;13.00;99.90;;;;;;2008346;70;21051;-79
2021/12/30 09:13:15;;;;;;;0.40;0.30;;;13.10;99.90;;;;;;2018199;70;21067;-81
2021/12/30 09:15:41;;;;;;;1.37;0.85;;;13.20;99.90;;;;;;2018952;70;21017;-80
2021/12/30 09:18:07;;;;;;;7.80;0.88;;;13.30;99.90;;;;;;2022803;71;21075;-80
2021/12/30 09:20:33;;;;;;;0.40;0.40;;;13.50;99.90;;;;;;2019430;71;21156;-78
2021/12/30 09:23:00;;;;;;;0.55;0.40;;;13.80;99.90;;;;;;2021010;70;21051;-83
2021/12/30 09:25:27;;;;;;;0.95;0.40;;;13.90;99.90;;;;;;2021844;70;21050;-82
2021/12/30 09:27:53;;;;;;;1.90;0.50;;;14.10;99.90;;;;;;2021343;70;21053;-82
2021/12/30 09:30:19;;;;;;;0.70;0.33;;;14.20;99.90;;;;;;2020293;70;21100;-79
2021/12/30 09:32:45;;;;;;;0.55;0.50;;;14.40;99.90;;;;;;2018626;70;21043;-79
2021/12/30 09:35:11;;;;;;;0.93;0.40;;;14.80;99.90;;;;;;2020575;70;21164;-81
2021/12/30 09:37:37;;;;;;;2.05;0.45;;;15.00;99.90;;;;;;2020612;70;21128;-81
2021/12/30 09:40:03;;;;;;;0.40;0.40;;;15.20;99.90;;;;;;2020459;70;21009;-78
2021/12/30 09:42:29;;;;;;;0.57;0.57;;;15.40;99.90;;;;;;2021733;70;21160;-79
2021/12/30 09:44:56;;;;;;;0.85;0.80;;;15.70;99.90;;;;;;2021836;70;21140;-78
2021/12/30 09:47:22;;;;;;;4.03;1.05;;;15.90;99.90;;;;;;2020585;70;21048;-78
2021/12/30 09:49:50;;;;;;;0.50;0.50;;;16.00;99.90;;;;;;2021620;70;21079;-79
2021/12/30 09:52:16;;;;;;;0.50;0.50;;;15.80;99.90;;;;;;2020372;70;21072;-79
2021/12/30 09:54:42;;;;;;;0.60;0.60;;;15.50;99.90;;;;;;2022150;70;21161;-79
2021/12/30 09:57:08;;;;;;;0.40;0.40;;;15.40;99.90;;;;;;2020483;70;21689;-79
2021/12/30 09:59:34;;;;;;;0.40;0.40;;;15.50;99.90;;;;;;2020585;70;21513;-80
2021/12/30 10:02:00;;;;;;;0.55;0.35;;;15.60;99.90;;;;;;2022583;70;21455;-83
2021/12/30 10:04:29;;;;;;;2.98;0.85;;;15.60;99.90;;;;;;2023207;70;21125;-85
2021/12/30 10:06:55;;;;;;;2.27;0.75;;;15.60;99.90;;;;;;2019196;70;21055;-84
2021/12/30 10:09:29;;;;;;;0.98;0.55;;;15.60;99.90;;;;;;2021113;70;21122;-84
2021/12/30 10:11:49;;;;;;;1.00;0.30;;;15.80;99.90;;;;;;2018317;70;21068;-84
2021/12/30 10:14:15;;;;;;;1.50;0.65;;;15.60;99.90;;;;;;2021117;70;21089;-84
2021/12/30 10:16:43;;;;;;;0.50;0.40;;;15.90;99.90;;;;;;2023227;70;21046;-83
2021/12/30 10:21:37;;;;;;;0.42;0.42;;;15.90;99.90;;;;;;1940249;70;21023;-85
2021/12/30 10:24:06;;;;;;;1.40;0.40;;;15.90;99.90;;;;;;2021664;70;21132;-79
2021/12/30 10:26:34;;;;;;;0.35;0.30;;;16.00;99.90;;;;;;2023271;70;21532;-86
2021/12/30 10:29:00;;;;;;;0.50;0.40;;;16.00;99.90;;;;;;2022424;70;21153;-87
2021/12/30 10:31:27;;;;;;;0.53;0.30;;;16.10;99.90;;;;;;2012803;70;21058;-88
2021/12/30 10:33:54;;;;;;;0.45;0.33;;;16.30;99.90;;;;;;2023532;70;21048;-88
2021/12/30 10:36:20;;;;;;;1.65;0.50;;;16.30;99.90;;;;;;2022254;70;21071;-83
2021/12/30 10:38:46;;;;;;;0.40;0.40;;;16.40;99.90;;;;;;2021335;70;21004;-88
2021/12/30 10:41:12;;;;;;;3.08;0.35;;;16.70;99.90;;;;;;2020072;71;21068;-84
2021/12/30 10:43:46;;;;;;;0.40;0.40;;;17.00;99.90;;;;;;2022431;70;21157;-84
2021/12/30 10:46:12;;;;;;;1.30;0.30;;;17.40;99.90;;;;;;2019343;70;21043;-83
2021/12/30 10:48:38;;;;;;;0.20;0.20;;;17.80;99.90;;;;;;2020198;71;21052;-83
2021/12/30 10:51:04;;;;;;;1.17;0.30;;;17.60;99.90;;;;;;2020674;70;21050;-83
2021/12/30 10:53:31;;;;;;;0.47;0.33;;;17.40;99.90;;;;;;2020344;70;21100;-82
2021/12/30 10:55:57;;;;;;;0.65;0.30;;;17.50;99.90;;;;;;2020113;70;21475;-83
2021/12/30 10:58:23;;;;;;;0.50;0.50;;;17.40;99.90;;;;;;2020245;70;21016;-80
2021/12/30 11:00:49;;;;;;;0.60;0.60;;;17.70;99.90;;;;;;2022519;70;21048;-79
2021/12/30 11:03:15;;;;;;;0.98;0.40;;;18.30;99.90;;;;;;2019815;70;21056;-83
2021/12/30 11:05:42;;;;;;;0.30;0.30;;;18.50;99.90;;;;;;2020757;70;21043;-78
2021/12/30 11:08:08;;;;;;;0.70;0.60;;;18.80;99.90;;;;;;2021041;70;21121;-79
2021/12/30 11:10:36;;;;;;;1.70;0.40;;;19.20;99.90;;;;;;2019254;71;21004;-81
2021/12/30 11:13:02;;;;;;;0.80;0.20;;;19.20;99.90;;;;;;2019379;71;21476;-82
2021/12/30 11:15:28;;;;;;;0.30;0.30;;;18.70;99.90;;;;;;2022486;70;21792;-81
2021/12/30 11:17:54;;;;;;;1.22;0.30;;;18.30;99.90;;;;;;2019461;70;21463;-80
2021/12/30 11:20:20;;;;;;;0.30;0.30;;;18.00;99.90;;;;;;2014104;70;21518;-81
2021/12/30 11:22:50;;;;;;;0.42;0.40;;;18.10;99.90;;;;;;2018703;70;21468;-82
2021/12/30 11:25:14;;;;;;;0.30;0.30;;;18.30;99.90;;;;;;2019740;70;21073;-83
2021/12/30 11:27:40;;;;;;;0.23;0.23;;;18.20;99.90;;;;;;2019870;70;21025;-83
2021/12/30 11:30:07;;;;;;;0.20;0.20;;;18.20;99.90;;;;;;2020299;70;21047;-77
2021/12/30 11:32:49;;;;;;;;;;;;;;;;;;;;;
2021/12/30 11:35:26;;;;;;;2.87;1.82;;;17.60;99.90;;;;;;2005862;70;21160;-87
2021/12/30 11:37:52;;;;;;;0.40;0.40;;;17.40;99.90;;;;;;2022450;70;21059;-84
2021/12/30 11:45:35;;;;;;;0.78;0.60;;;17.10;99.90;;;;;;1895957;73;21096;-84
2021/12/30 11:48:01;;;;;;;0.40;0.40;;;17.00;99.90;;;;;;1919809;73;21050;-85
2021/12/30 11:50:27;;;;;;;0.78;0.47;;;17.40;99.90;;;;;;1941577;73;21198;-85
2021/12/30 11:52:57;;;;;;;0.35;0.33;;;17.60;99.90;;;;;;1938257;73;21493;-85
2021/12/30 11:55:21;;;;;;;0.47;0.40;;;17.90;99.90;;;;;;1937245;74;21106;-79
2021/12/30 11:57:47;;;;;;;0.40;0.40;;;17.90;99.90;;;;;;1939348;74;21097;-81
2021/12/30 12:00:13;;;;;;;0.30;0.30;;;17.60;99.90;;;;;;1938857;73;21080;-81
2021/12/30 12:05:24;;;;;;;1.25;0.50;;;17.50;99.90;;;;;;1970630;72;21496;-83
2021/12/30 12:07:51;;;;;;;1.40;0.50;;;17.60;99.90;;;;;;1982928;70;21417;-82
2021/12/30 12:10:17;;;;;;;0.40;0.40;;;18.10;99.90;;;;;;2015663;70;21057;-81
2021/12/30 12:12:43;;;;;;;0.60;0.50;;;18.50;99.90;;;;;;2045571;69;21120;-81
2021/12/30 12:15:09;;;;;;;0.40;0.40;;;18.40;99.90;;;;;;1973716;72;21093;-82
2021/12/30 12:17:35;;;;;;;0.25;0.25;;;18.10;99.90;;;;;;1989936;71;21067;-80
2021/12/30 12:20:02;;;;;;;0.65;0.37;;;18.00;99.90;;;;;;1988928;71;21136;-80
2021/12/30 12:22:28;;;;;;;0.30;0.30;;;17.50;99.90;;;;;;1989058;71;21074;-74
2021/12/30 12:24:54;;;;;;;0.40;0.40;;;17.10;99.90;;;;;;2003262;70;21110;-83
2021/12/30 12:27:21;;;;;;;0.20;0.20;;;17.10;99.90;;;;;;1967103;70;21039;-85
2021/12/30 12:29:47;;;;;;;0.42;0.30;;;17.00;99.90;;;;;;1989082;71;21050;-81
2021/12/30 12:32:14;;;;;;;0.88;0.23;;;17.00;99.90;;;;;;2010610;70;21126;-77
2021/12/30 12:34:40;;;;;;;0.20;0.20;;;17.10;99.90;;;;;;1966293;72;21156;-80
2021/12/30 12:37:06;;;;;;;0.20;0.20;;;17.00;99.90;;;;;;1987995;72;21040;-80
2021/12/30 12:39:32;;;;;;;0.10;0.10;;;17.20;99.90;;;;;;2040691;69;21050;-79
2021/12/30 12:41:58;;;;;;;0.20;0.20;;;17.30;99.90;;;;;;2041988;69;21054;-81
2021/12/30 12:44:24;;;;;;;0.40;0.23;;;17.40;99.90;;;;;;2044336;69;21188;-80
2021/12/30 12:46:51;;;;;;;0.33;0.33;;;17.30;99.90;;;;;;2050653;69;21498;-85
2021/12/30 12:49:18;;;;;;;0.30;0.20;;;17.20;99.90;;;;;;2057673;69;21196;-81
2021/12/30 12:51:44;;;;;;;1.45;0.25;;;17.20;99.90;;;;;;2036712;69;21038;-80
2021/12/30 12:54:10;;;;;;;0.08;0.08;;;17.10;99.90;;;;;;1989599;72;21138;-80